Time;durP1;ratioP1;P1;durP2;ratioP2;P2;SDS_P1;SDS_P2;PMS_P1;PMS_P2;Temp;Humidity;BMP_temperature;BMP_pressure;BME280_temperature;BME280_humidity;BME280_pressure;Samples;Min_cycle;Max_cycle;Signal;HPM_P1;HPM_P2
2022/04/23 00:01:16;;;;;;;20.77;16.77;;;11.80;99.90;;;;;;5011617;28;20033;-72
2022/04/23 00:03:42;;;;;;;25.15;18.35;;;12.00;99.90;;;;;;5009497;28;20112;-73
2022/04/23 00:06:08;;;;;;;28.23;22.08;;;12.00;99.90;;;;;;5007650;28;20026;-73
2022/04/23 00:08:34;;;;;;;24.35;20.50;;;12.00;99.90;;;;;;5009312;28;20520;-73
2022/04/23 00:10:59;;;;;;;22.77;20.25;;;11.90;99.90;;;;;;5007390;28;20597;-72
2022/04/23 00:13:26;;;;;;;22.58;20.27;;;11.80;99.90;;;;;;5011520;28;20414;-73
2022/04/23 00:15:52;;;;;;;24.00;21.27;;;11.80;99.90;;;;;;5010268;28;20033;-72
2022/04/23 00:18:18;;;;;;;22.58;20.13;;;11.70;99.90;;;;;;5009184;28;20022;-72
2022/04/23 00:20:47;;;;;;;20.63;18.75;;;11.70;99.90;;;;;;5009008;28;20029;-73
2022/04/23 00:23:14;;;;;;;18.55;16.95;;;11.70;99.90;;;;;;5008306;28;20088;-74
2022/04/23 00:25:40;;;;;;;19.25;17.40;;;11.70;99.90;;;;;;5009599;28;20028;-74
2022/04/23 00:28:07;;;;;;;19.50;17.45;;;11.70;99.90;;;;;;5011769;28;20057;-73
2022/04/23 00:30:33;;;;;;;15.32;13.50;;;11.70;99.90;;;;;;5010790;28;20022;-73
2022/04/23 00:33:03;;;;;;;20.40;18.35;;;11.60;99.90;;;;;;5008764;28;20044;-73
2022/04/23 00:35:29;;;;;;;18.45;16.75;;;11.60;99.90;;;;;;5005464;28;20316;-73
2022/04/23 00:38:06;;;;;;;17.05;15.40;;;11.60;99.90;;;;;;5008802;28;20053;-72
2022/04/23 00:40:33;;;;;;;15.45;14.10;;;11.60;99.90;;;;;;5008141;28;20033;-74
2022/04/23 00:42:59;;;;;;;17.95;16.05;;;11.60;99.90;;;;;;5005539;28;20029;-73
2022/04/23 00:45:26;;;;;;;16.45;15.05;;;11.60;99.90;;;;;;5009315;28;20021;-72
2022/04/23 00:47:52;;;;;;;16.48;14.93;;;11.70;99.90;;;;;;5007874;28;20501;-72
2022/04/23 00:50:21;;;;;;;18.15;16.48;;;11.60;99.90;;;;;;5020815;28;20033;-73
2022/04/23 00:53:03;;;;;;;19.17;16.75;;;11.60;99.90;;;;;;5007255;28;20084;-73
2022/04/23 00:55:31;;;;;;;17.98;16.05;;;11.70;99.90;;;;;;4999785;28;20037;-76
2022/04/23 00:57:58;;;;;;;18.83;16.88;;;11.70;99.90;;;;;;5009400;28;20025;-72
2022/04/23 01:00:25;;;;;;;19.60;17.52;;;11.70;99.90;;;;;;5008352;28;20038;-73
2022/04/23 01:02:54;;;;;;;17.77;16.17;;;11.70;99.90;;;;;;5011191;28;20482;-75
2022/04/23 01:05:23;;;;;;;18.83;17.05;;;11.70;99.90;;;;;;5008993;28;20034;-73
2022/04/23 01:07:51;;;;;;;17.23;15.43;;;11.70;99.90;;;;;;5007970;28;20022;-72
2022/04/23 01:10:18;;;;;;;19.67;16.33;;;11.70;99.90;;;;;;5007760;28;20026;-72
2022/04/23 01:12:45;;;;;;;19.02;17.23;;;11.70;99.90;;;;;;5007256;28;20566;-73
2022/04/23 01:15:13;;;;;;;17.92;16.13;;;11.70;99.90;;;;;;5006116;28;20375;-72
2022/04/23 01:17:40;;;;;;;23.02;20.95;;;11.70;99.90;;;;;;5010434;28;20018;-73
2022/04/23 01:20:09;;;;;;;18.27;16.30;;;11.80;99.90;;;;;;5009771;28;20037;-72
2022/04/23 01:22:38;;;;;;;16.35;14.88;;;11.80;99.90;;;;;;5007322;28;20033;-71
2022/04/23 01:25:06;;;;;;;13.85;12.40;;;11.80;99.90;;;;;;5008309;28;20029;-72
2022/04/23 01:27:34;;;;;;;14.73;13.40;;;11.80;99.90;;;;;;5010486;28;20097;-73
2022/04/23 01:30:01;;;;;;;13.05;11.75;;;11.90;99.90;;;;;;4999214;28;20026;-72
2022/04/23 01:32:27;;;;;;;16.83;13.55;;;11.80;99.90;;;;;;5009428;28;20034;-72
2022/04/23 01:34:53;;;;;;;12.70;11.38;;;11.80;99.90;;;;;;5009298;28;20101;-73
2022/04/23 01:37:19;;;;;;;12.57;11.32;;;11.80;99.90;;;;;;5008094;28;20165;-72
2022/04/23 01:39:46;;;;;;;12.48;11.48;;;11.90;99.90;;;;;;5006558;28;20030;-73
2022/04/23 01:42:13;;;;;;;12.13;11.02;;;11.90;99.90;;;;;;5007745;28;20028;-73
2022/04/23 01:44:39;;;;;;;12.38;11.15;;;11.80;99.90;;;;;;5010475;28;20032;-75
2022/04/23 01:47:05;;;;;;;18.95;11.48;;;12.00;99.90;;;;;;5014047;28;20518;-72
2022/04/23 01:49:31;;;;;;;12.00;10.80;;;12.00;99.90;;;;;;5013680;28;20033;-73
2022/04/23 01:51:57;;;;;;;23.23;15.30;;;12.10;99.90;;;;;;5005227;28;20034;-73
2022/04/23 01:54:23;;;;;;;12.57;11.43;;;12.00;99.90;;;;;;5009056;28;20022;-72
2022/04/23 01:56:49;;;;;;;11.63;10.38;;;12.00;99.90;;;;;;5012228;28;20026;-73
2022/04/23 01:59:14;;;;;;;11.25;10.23;;;12.00;99.90;;;;;;5011707;28;20075;-72
2022/04/23 02:01:41;;;;;;;10.05;9.25;;;12.00;99.90;;;;;;5010821;28;20076;-73
2022/04/23 02:04:07;;;;;;;12.00;10.60;;;12.00;99.90;;;;;;5012814;28;20133;-73
2022/04/23 02:06:35;;;;;;;12.55;11.00;;;12.00;99.90;;;;;;5012111;28;20494;-73
2022/04/23 02:09:02;;;;;;;11.50;10.40;;;12.00;99.90;;;;;;5014198;28;20167;-73
2022/04/23 02:11:29;;;;;;;10.77;9.88;;;12.00;99.90;;;;;;5009605;28;20087;-74
2022/04/23 02:13:54;;;;;;;11.38;10.18;;;12.10;99.90;;;;;;5011779;28;20085;-73
2022/04/23 02:16:20;;;;;;;12.05;10.95;;;12.00;99.90;;;;;;5013089;28;20512;-74
2022/04/23 02:18:46;;;;;;;13.90;10.25;;;11.90;99.90;;;;;;5016234;28;20022;-73
2022/04/23 02:21:12;;;;;;;10.50;9.60;;;11.90;99.90;;;;;;5010304;28;20096;-73
2022/04/23 02:23:38;;;;;;;9.60;8.80;;;12.00;99.90;;;;;;5011866;28;20513;-72
2022/04/23 02:26:05;;;;;;;10.93;9.73;;;12.00;99.90;;;;;;5010177;28;20033;-72
2022/04/23 02:28:31;;;;;;;9.50;8.70;;;12.10;99.90;;;;;;5014827;28;20108;-72
2022/04/23 02:30:57;;;;;;;8.90;8.02;;;12.10;99.90;;;;;;5015980;28;20053;-74
2022/04/23 02:33:23;;;;;;;9.82;8.82;;;12.00;99.90;;;;;;5019741;28;20026;-73
2022/04/23 02:35:50;;;;;;;9.88;8.98;;;12.00;99.90;;;;;;5017595;28;20028;-73
2022/04/23 02:38:17;;;;;;;9.60;8.75;;;12.00;99.90;;;;;;5015895;28;20014;-74
2022/04/23 02:40:46;;;;;;;9.10;8.32;;;12.00;99.90;;;;;;5012486;28;20034;-74
2022/04/23 02:43:12;;;;;;;10.48;8.60;;;12.00;99.90;;;;;;5011370;28;20385;-72
2022/04/23 02:45:41;;;;;;;11.73;9.65;;;12.00;99.90;;;;;;5011505;28;20018;-74
2022/04/23 02:48:09;;;;;;;10.43;9.32;;;12.00;99.90;;;;;;5013282;28;20017;-73
2022/04/23 02:50:39;;;;;;;9.63;8.65;;;12.00;99.90;;;;;;5009148;28;20033;-74
2022/04/23 02:53:07;;;;;;;10.68;9.65;;;11.90;99.90;;;;;;5011789;28;20021;-73
2022/04/23 02:55:34;;;;;;;10.88;9.80;;;12.00;99.90;;;;;;5011382;28;20550;-74
2022/04/23 02:58:10;;;;;;;12.23;8.75;;;12.00;99.90;;;;;;5005448;28;20026;-72
2022/04/23 03:00:42;;;;;;;9.40;8.50;;;12.00;99.90;;;;;;5004202;28;20026;-73
2022/04/23 03:03:10;;;;;;;10.10;9.13;;;12.00;99.90;;;;;;5007375;28;20032;-70
2022/04/23 03:05:37;;;;;;;9.32;8.52;;;12.00;99.90;;;;;;5011507;28;20026;-73
2022/04/23 03:08:03;;;;;;;10.13;9.20;;;12.00;99.90;;;;;;5011838;28;20497;-73
2022/04/23 03:10:31;;;;;;;11.15;10.05;;;12.00;99.90;;;;;;5008645;28;20175;-74
2022/04/23 03:12:57;;;;;;;12.93;9.93;;;12.10;99.90;;;;;;5010582;28;20088;-72
2022/04/23 03:15:26;;;;;;;9.00;8.30;;;12.10;99.90;;;;;;5009900;28;20022;-72
2022/04/23 03:18:05;;;;;;;11.52;10.50;;;12.30;99.90;;;;;;5013243;28;20033;-72
2022/04/23 03:20:31;;;;;;;9.35;8.43;;;12.30;99.90;;;;;;5009181;28;20030;-72
2022/04/23 03:22:57;;;;;;;15.15;10.50;;;12.20;99.90;;;;;;5010751;28;20113;-72
2022/04/23 03:25:23;;;;;;;9.27;8.25;;;12.10;99.90;;;;;;5011032;28;20124;-73
2022/04/23 03:27:49;;;;;;;10.57;9.63;;;12.10;99.90;;;;;;5012732;28;20052;-75
2022/04/23 03:30:14;;;;;;;9.98;9.00;;;12.10;99.90;;;;;;5010356;28;20086;-73
2022/04/23 03:32:41;;;;;;;11.25;10.15;;;12.10;99.90;;;;;;5008887;28;20479;-72
2022/04/23 03:35:08;;;;;;;9.77;8.90;;;12.10;99.90;;;;;;5008708;28;20026;-72
2022/04/23 03:37:37;;;;;;;9.85;8.85;;;12.10;99.90;;;;;;5012379;28;20022;-73
2022/04/23 03:40:08;;;;;;;8.55;7.65;;;12.10;99.90;;;;;;5011167;28;20026;-73
2022/04/23 03:42:34;;;;;;;12.68;9.18;;;12.20;99.90;;;;;;5007233;28;20026;-73
2022/04/23 03:45:02;;;;;;;8.43;7.45;;;12.20;99.90;;;;;;5010825;28;20022;-72
2022/04/23 03:47:27;;;;;;;9.45;7.68;;;12.30;99.90;;;;;;5009746;28;20037;-72
2022/04/23 03:49:53;;;;;;;7.78;6.97;;;12.30;99.90;;;;;;5009731;28;20030;-74
2022/04/23 03:52:19;;;;;;;8.18;7.05;;;12.20;99.90;;;;;;5012975;28;20030;-74
2022/04/23 03:54:47;;;;;;;7.78;7.07;;;12.20;99.90;;;;;;5009645;28;20022;-72
2022/04/23 03:57:12;;;;;;;8.20;7.40;;;12.30;99.90;;;;;;5007722;28;20074;-75
2022/04/23 03:59:38;;;;;;;7.63;6.97;;;12.30;99.90;;;;;;5003015;28;21724;-73
2022/04/23 04:02:05;;;;;;;9.80;7.18;;;12.30;99.90;;;;;;5002554;28;20033;-72
2022/04/23 04:04:34;;;;;;;8.43;7.65;;;12.30;99.90;;;;;;5011775;28;20041;-72
2022/04/23 04:07:00;;;;;;;8.82;8.00;;;12.30;99.90;;;;;;5001584;28;20045;-73
2022/04/23 04:09:29;;;;;;;9.23;7.82;;;12.30;99.90;;;;;;5011381;28;20109;-72
2022/04/23 04:12:01;;;;;;;8.15;7.40;;;12.30;99.90;;;;;;5010072;28;20097;-72
2022/04/23 04:14:31;;;;;;;;;;;12.30;99.90;;;;;;5010137;28;20022;-72
2022/04/23 04:16:59;;;;;;;8.48;7.75;;;12.40;99.90;;;;;;5009982;28;20000;-74
2022/04/23 04:19:27;;;;;;;10.00;6.75;;;12.40;99.90;;;;;;5011499;28;20100;-74
2022/04/23 04:21:57;;;;;;;10.95;6.28;;;12.30;99.90;;;;;;5012819;28;20358;-72
2022/04/23 04:24:24;;;;;;;12.73;7.70;;;12.30;99.90;;;;;;5008955;28;20487;-74
2022/04/23 04:27:22;;;;;;;7.07;6.38;;;12.40;99.90;;;;;;5009088;28;20034;-74
2022/04/23 04:29:51;;;;;;;7.18;6.55;;;12.30;99.90;;;;;;5018753;28;20017;-74
2022/04/23 04:32:23;;;;;;;6.00;5.53;;;12.30;99.90;;;;;;5024518;28;20036;-74
2022/04/23 04:34:52;;;;;;;6.18;5.72;;;12.20;99.90;;;;;;5031134;28;20029;-72
2022/04/23 04:37:18;;;;;;;12.73;6.18;;;12.20;99.90;;;;;;5024807;28;20025;-73
2022/04/23 04:39:44;;;;;;;9.68;6.28;;;12.10;99.90;;;;;;5013791;28;20390;-73
2022/04/23 04:42:11;;;;;;;6.78;5.88;;;12.20;99.90;;;;;;5014568;28;20112;-74
2022/04/23 04:44:38;;;;;;;8.48;5.97;;;12.10;99.90;;;;;;5008552;28;20386;-73
2022/04/23 04:47:05;;;;;;;9.07;7.03;;;12.00;99.90;;;;;;5011055;28;20047;-73
2022/04/23 04:49:31;;;;;;;9.00;6.72;;;12.00;99.90;;;;;;5005313;28;20041;-73
2022/04/23 04:51:56;;;;;;;9.45;6.47;;;12.00;99.90;;;;;;5010083;28;20522;-74
2022/04/23 04:54:23;;;;;;;7.25;6.13;;;12.10;99.90;;;;;;5007866;28;20026;-72
2022/04/23 04:56:53;;;;;;;7.95;7.18;;;12.20;99.90;;;;;;5010641;28;20440;-73
2022/04/23 04:59:22;;;;;;;8.55;6.05;;;12.20;99.90;;;;;;5011296;28;20710;-73
2022/04/23 05:01:49;;;;;;;16.60;7.60;;;12.30;99.90;;;;;;5011811;28;20057;-73
2022/04/23 05:04:15;;;;;;;8.05;6.15;;;12.30;99.90;;;;;;5008072;28;20119;-74
2022/04/23 05:06:40;;;;;;;6.65;5.47;;;12.40;99.90;;;;;;5000938;28;20567;-73
2022/04/23 05:09:06;;;;;;;6.93;5.78;;;12.50;99.90;;;;;;5012717;28;20049;-74
2022/04/23 05:11:32;;;;;;;9.35;6.22;;;12.50;99.90;;;;;;5010677;28;20014;-72
2022/04/23 05:13:58;;;;;;;7.25;6.30;;;12.50;99.90;;;;;;5007813;28;20026;-73
2022/04/23 05:16:23;;;;;;;9.15;6.50;;;12.50;99.90;;;;;;5011252;28;20522;-75
2022/04/23 05:18:49;;;;;;;10.57;6.80;;;12.40;99.90;;;;;;5008072;28;20027;-72
2022/04/23 05:21:15;;;;;;;11.65;6.13;;;12.40;99.90;;;;;;5009592;28;20437;-72
2022/04/23 05:23:41;;;;;;;7.15;5.70;;;12.50;99.90;;;;;;5010445;28;20029;-72
2022/04/23 05:26:09;;;;;;;6.70;6.10;;;12.60;99.90;;;;;;5009019;28;20068;-72
2022/04/23 05:28:35;;;;;;;7.03;5.45;;;12.60;99.90;;;;;;5008126;28;20025;-72
2022/04/23 05:31:01;;;;;;;7.15;5.53;;;12.60;99.90;;;;;;5008893;28;20132;-73
2022/04/23 05:33:27;;;;;;;12.93;6.57;;;12.70;99.90;;;;;;5005602;28;20038;-73
2022/04/23 05:35:53;;;;;;;6.65;5.53;;;12.80;99.90;;;;;;5010300;28;20037;-73
2022/04/23 05:38:22;;;;;;;6.47;5.55;;;13.00;99.90;;;;;;5011626;28;20029;-72
2022/04/23 05:41:11;;;;;;;8.30;6.15;;;13.20;99.90;;;;;;5005950;28;20494;-74
2022/04/23 05:44:01;;;;;;;6.43;5.78;;;13.20;99.90;;;;;;4995838;28;20260;-76
2022/04/23 05:46:28;;;;;;;7.30;5.43;;;13.30;99.90;;;;;;5012741;28;20486;-71
2022/04/23 05:48:55;;;;;;;12.73;4.90;;;13.30;99.90;;;;;;5014748;28;20030;-73
2022/04/23 05:51:21;;;;;;;6.75;6.15;;;13.30;99.90;;;;;;5014409;28;20552;-72
2022/04/23 05:53:47;;;;;;;9.70;5.40;;;13.30;99.90;;;;;;5008316;28;20438;-72
2022/04/23 05:56:12;;;;;;;5.95;5.40;;;13.30;99.90;;;;;;5006669;28;20018;-73
2022/04/23 05:58:38;;;;;;;5.57;4.93;;;13.40;99.90;;;;;;5006099;28;20025;-72
2022/04/23 06:01:04;;;;;;;5.25;4.53;;;13.40;99.90;;;;;;5008774;28;20049;-73
2022/04/23 06:03:31;;;;;;;7.15;4.55;;;13.50;99.90;;;;;;5010907;28;20405;-73
2022/04/23 06:06:24;;;;;;;6.22;4.95;;;13.60;99.90;;;;;;5009854;28;20346;-74
2022/04/23 06:09:18;;;;;;;9.35;4.90;;;13.70;99.90;;;;;;5008685;28;20045;-75
2022/04/23 06:12:14;;;;;;;;;;;;;;;;;;;;;
2022/04/23 06:14:59;;;;;;;5.18;3.67;;;14.00;99.90;;;;;;5015045;28;20102;-74
2022/04/23 06:17:26;;;;;;;4.75;3.60;;;14.30;99.90;;;;;;5003584;28;20441;-78
2022/04/23 06:19:52;;;;;;;7.10;4.53;;;14.60;99.90;;;;;;5011538;28;20030;-72
2022/04/23 06:22:22;;;;;;;4.28;3.90;;;14.80;99.90;;;;;;5008985;28;20466;-72
2022/04/23 06:24:48;;;;;;;8.70;4.55;;;14.90;99.90;;;;;;5009231;28;20034;-73
2022/04/23 06:27:14;;;;;;;6.32;4.50;;;15.00;99.90;;;;;;5009483;28;20045;-73
2022/04/23 06:29:40;;;;;;;5.97;4.15;;;15.10;99.90;;;;;;5009663;28;20030;-74
2022/04/23 06:32:06;;;;;;;5.28;4.80;;;15.00;99.90;;;;;;5014330;28;20041;-73
2022/04/23 06:34:34;;;;;;;9.68;3.15;;;15.10;99.90;;;;;;5011259;28;20156;-73
2022/04/23 06:36:59;;;;;;;12.95;4.13;;;15.10;99.90;;;;;;5011423;28;20347;-71
2022/04/23 06:39:25;;;;;;;5.18;3.55;;;15.10;99.90;;;;;;5014199;28;20025;-73
2022/04/23 06:42:01;;;;;;;11.02;3.53;;;15.20;99.90;;;;;;5012748;28;20045;-74
2022/04/23 06:44:28;;;;;;;11.77;4.15;;;15.10;99.90;;;;;;5006494;28;20029;-71
2022/04/23 06:46:54;;;;;;;9.55;5.40;;;15.00;99.90;;;;;;5011600;28;20023;-72
2022/04/23 06:49:20;;;;;;;11.70;6.07;;;15.20;99.90;;;;;;5013751;28;20298;-73
2022/04/23 06:51:46;;;;;;;5.57;5.07;;;15.30;99.90;;;;;;5012456;28;20111;-73
2022/04/23 06:54:12;;;;;;;5.50;4.45;;;15.30;99.90;;;;;;5010217;28;20054;-73
2022/04/23 06:56:39;;;;;;;6.82;4.38;;;15.40;99.90;;;;;;5009695;28;20415;-74
2022/04/23 06:59:05;;;;;;;7.78;3.92;;;15.40;99.90;;;;;;5012377;28;20393;-72
2022/04/23 07:01:31;;;;;;;5.20;4.70;;;15.40;99.90;;;;;;5012933;28;20048;-74
2022/04/23 07:03:56;;;;;;;4.88;4.38;;;15.30;99.90;;;;;;5010667;28;20494;-73
2022/04/23 07:06:22;;;;;;;7.63;5.00;;;15.20;99.90;;;;;;5010363;28;20034;-74
2022/04/23 07:08:48;;;;;;;6.20;4.82;;;15.30;99.90;;;;;;5009682;28;20026;-74
2022/04/23 07:11:14;;;;;;;7.93;5.47;;;15.40;99.90;;;;;;5010962;28;20038;-74
2022/04/23 07:13:39;;;;;;;6.82;4.68;;;15.30;99.90;;;;;;5011373;28;20116;-72
2022/04/23 07:16:06;;;;;;;7.22;4.85;;;15.30;99.90;;;;;;5013007;28;20029;-72
2022/04/23 07:18:32;;;;;;;4.50;4.18;;;15.40;99.90;;;;;;5012450;28;20125;-73
2022/04/23 07:20:58;;;;;;;5.57;3.97;;;15.40;99.90;;;;;;5012487;28;20029;-73
2022/04/23 07:26:08;;;;;;;5.40;4.43;;;15.40;99.90;;;;;;5012860;28;20037;-73
2022/04/23 07:28:34;;;;;;;4.40;3.40;;;15.60;99.90;;;;;;5012424;28;20029;-73
2022/04/23 07:31:00;;;;;;;10.57;4.30;;;15.60;99.90;;;;;;5011357;28;20423;-73
2022/04/23 07:39:06;;;;;;;9.85;4.90;;;15.50;99.90;;;;;;5010970;28;20033;-73
2022/04/23 07:41:31;;;;;;;16.77;9.85;;;15.70;99.90;;;;;;5011587;28;20485;-73
2022/04/23 07:43:57;;;;;;;9.45;7.75;;;15.70;99.90;;;;;;5010019;28;20036;-75
2022/04/23 07:46:24;;;;;;;7.55;5.63;;;15.70;99.90;;;;;;5013485;28;20029;-73
2022/04/23 07:48:50;;;;;;;8.32;5.30;;;15.70;99.90;;;;;;5015810;28;20025;-74
2022/04/23 07:51:16;;;;;;;10.45;7.40;;;15.70;99.90;;;;;;5004193;28;20072;-76
2022/04/23 07:53:42;;;;;;;16.17;7.50;;;15.80;99.90;;;;;;5012886;28;20071;-73
2022/04/23 07:56:08;;;;;;;7.75;6.85;;;15.70;99.90;;;;;;5011936;28;20117;-73
2022/04/23 07:58:34;;;;;;;8.35;6.72;;;15.80;99.90;;;;;;5012907;28;20438;-72
2022/04/23 08:01:00;;;;;;;13.90;6.15;;;15.90;99.90;;;;;;5012984;28;20014;-71
2022/04/23 08:03:26;;;;;;;8.75;6.40;;;16.10;99.90;;;;;;5013108;28;20496;-75
2022/04/23 08:05:51;;;;;;;8.85;4.80;;;16.30;99.90;;;;;;5018892;28;20061;-74
2022/04/23 08:08:18;;;;;;;7.03;5.65;;;16.50;99.90;;;;;;5010935;28;20034;-74
2022/04/23 08:10:47;;;;;;;6.30;4.93;;;16.70;99.90;;;;;;5012147;28;20033;-75
2022/04/23 08:13:13;;;;;;;6.82;5.32;;;16.90;99.90;;;;;;5012616;28;20022;-75
2022/04/23 08:15:39;;;;;;;8.57;4.97;;;17.10;99.90;;;;;;5013283;28;20080;-75
2022/04/23 08:18:06;;;;;;;5.50;5.00;;;17.30;99.90;;;;;;5011850;28;20025;-76
2022/04/23 08:20:32;;;;;;;8.82;5.32;;;17.20;99.90;;;;;;5010875;28;20030;-74
2022/04/23 08:22:57;;;;;;;7.00;5.60;;;17.30;99.90;;;;;;5010287;28;20036;-75
2022/04/23 08:25:24;;;;;;;6.20;4.57;;;17.40;99.90;;;;;;5013935;28;20572;-73
2022/04/23 08:27:51;;;;;;;12.95;7.22;;;17.40;99.90;;;;;;5012530;28;20026;-76
2022/04/23 08:30:34;;;;;;;6.63;6.10;;;17.50;99.90;;;;;;5011065;28;20034;-71
2022/04/23 08:33:57;;;;;;;9.60;6.68;;;17.30;99.90;;;;;;5021176;28;20033;-75
2022/04/23 08:36:15;;;;;;;14.32;6.60;;;17.20;99.90;;;;;;5017655;28;20026;-69
2022/04/23 08:38:41;;;;;;;10.23;7.60;;;17.10;99.90;;;;;;5010432;28;20042;-69
2022/04/23 08:41:08;;;;;;;7.00;6.03;;;17.20;99.90;;;;;;5011960;28;20033;-70
2022/04/23 08:43:34;;;;;;;11.23;6.05;;;17.50;99.90;;;;;;5013739;28;20398;-71
2022/04/23 08:46:02;;;;;;;8.10;4.78;;;17.50;99.90;;;;;;5003799;28;20034;-71
2022/04/23 08:48:36;;;;;;;11.68;5.50;;;17.70;99.90;;;;;;5008809;28;20040;-71
2022/04/23 08:51:04;;;;;;;8.43;5.05;;;17.80;99.90;;;;;;5009773;28;20048;-71
2022/04/23 08:53:34;;;;;;;4.47;4.10;;;17.90;99.90;;;;;;5012412;28;20434;-70
2022/04/23 08:56:01;;;;;;;10.25;5.18;;;18.00;99.90;;;;;;5007578;28;20104;-70
2022/04/23 08:58:40;;;;;;;7.70;5.20;;;17.90;99.90;;;;;;5013055;28;20049;-69
2022/04/23 09:01:06;;;;;;;6.43;4.65;;;17.80;99.90;;;;;;5002711;28;20550;-72
2022/04/23 09:03:32;;;;;;;4.30;3.95;;;17.60;99.90;;;;;;5011086;28;20044;-69
2022/04/23 09:05:58;;;;;;;10.57;3.95;;;17.40;99.90;;;;;;5008968;28;20025;-71
2022/04/23 09:08:26;;;;;;;5.65;3.70;;;17.70;99.90;;;;;;5009570;28;20478;-70
2022/04/23 09:10:54;;;;;;;4.82;2.90;;;17.90;99.90;;;;;;5010031;28;20120;-69
2022/04/23 09:13:38;;;;;;;6.53;3.03;;;17.80;99.90;;;;;;5008580;28;20034;-70
2022/04/23 09:24:47;;;;;;;4.40;4.00;;;17.80;99.90;;;;;;5013068;28;20032;-77
2022/04/23 09:27:14;;;;;;;10.73;4.88;;;17.80;99.90;;;;;;5014885;28;20517;-77
2022/04/23 09:29:42;;;;;;;5.22;4.10;;;17.70;99.90;;;;;;5011772;28;20158;-76
2022/04/23 09:32:23;;;;;;;6.32;5.72;;;17.70;99.90;;;;;;5006871;28;20061;-77
2022/04/23 09:35:20;;;;;;;10.13;7.43;;;17.70;99.90;;;;;;5011040;28;20033;-76
2022/04/23 09:40:30;;;;;;;7.47;6.78;;;17.20;99.90;;;;;;5011474;28;20028;-75
2022/04/23 09:43:00;;;;;;;11.15;6.10;;;17.00;99.90;;;;;;5011242;28;20029;-75
2022/04/23 09:45:28;;;;;;;8.75;6.10;;;17.00;99.90;;;;;;5011446;28;20116;-75
2022/04/23 09:47:54;;;;;;;7.20;5.28;;;17.20;99.90;;;;;;5010251;28;20058;-76
2022/04/23 09:50:20;;;;;;;7.72;5.22;;;17.20;99.90;;;;;;5010308;28;20084;-75
2022/04/23 09:52:46;;;;;;;5.68;5.13;;;17.10;99.90;;;;;;5018754;28;20029;-75
2022/04/23 09:55:12;;;;;;;8.18;5.53;;;16.70;99.90;;;;;;5030584;28;20032;-75
2022/04/23 09:57:39;;;;;;;7.22;5.25;;;16.60;99.90;;;;;;5028672;28;20021;-77
2022/04/23 10:00:08;;;;;;;6.63;4.88;;;16.60;99.90;;;;;;5000932;28;20073;-76
2022/04/23 10:02:34;;;;;;;7.47;5.82;;;16.60;99.90;;;;;;4991630;28;20034;-76
2022/04/23 10:05:02;;;;;;;7.53;4.75;;;16.50;99.90;;;;;;4993562;28;20031;-76
2022/04/23 10:07:30;;;;;;;15.13;6.35;;;16.50;99.90;;;;;;4995447;28;20034;-75
2022/04/23 10:10:00;;;;;;;6.32;4.55;;;16.60;99.90;;;;;;5004869;28;20497;-76
2022/04/23 10:12:31;;;;;;;5.65;5.10;;;16.50;99.90;;;;;;5014422;28;20053;-76
2022/04/23 10:14:59;;;;;;;5.88;5.13;;;16.50;99.90;;;;;;5010063;28;20026;-76
2022/04/23 10:17:25;;;;;;;16.88;6.18;;;16.60;99.90;;;;;;5014482;28;20026;-76
2022/04/23 10:19:52;;;;;;;8.63;5.68;;;16.60;99.90;;;;;;5014253;28;20296;-76
2022/04/23 10:22:31;;;;;;;12.63;5.38;;;16.40;99.90;;;;;;5014488;28;20041;-76
2022/04/23 10:25:06;;;;;;;6.78;5.43;;;16.30;99.90;;;;;;5016120;28;20108;-76
2022/04/23 10:27:34;;;;;;;8.38;6.18;;;16.30;99.90;;;;;;5014411;28;20493;-77
2022/04/23 10:30:02;;;;;;;8.18;5.15;;;16.20;99.90;;;;;;5014194;28;20160;-76
2022/04/23 10:32:41;;;;;;;5.50;4.88;;;16.10;99.90;;;;;;5013347;28;20087;-76
2022/04/23 10:35:19;;;;;;;4.90;4.40;;;16.10;99.90;;;;;;5014989;28;20026;-76
2022/04/23 10:37:49;;;;;;;5.60;5.10;;;16.10;99.90;;;;;;5014134;28;20046;-75
2022/04/23 10:40:17;;;;;;;8.15;4.43;;;16.10;99.90;;;;;;5015533;28;20026;-77
2022/04/23 10:43:06;;;;;;;6.47;5.35;;;16.00;99.90;;;;;;5013178;28;20486;-76
2022/04/23 10:45:38;;;;;;;6.53;4.95;;;16.20;99.90;;;;;;5011855;28;20038;-76
2022/04/23 10:48:26;;;;;;;7.70;4.95;;;16.40;99.90;;;;;;5020812;28;20464;-76
2022/04/23 10:51:06;;;;;;;9.35;4.88;;;16.50;99.90;;;;;;5032366;28;20048;-76
2022/04/23 10:53:38;;;;;;;5.65;3.78;;;16.80;99.90;;;;;;5020526;28;20072;-77
2022/04/23 10:56:07;;;;;;;10.73;4.40;;;16.90;99.90;;;;;;5008186;28;20029;-77
2022/04/23 10:58:34;;;;;;;6.50;5.10;;;16.80;99.90;;;;;;5012243;28;20022;-76
2022/04/23 11:01:21;;;;;;;5.72;5.28;;;16.70;99.90;;;;;;5013542;28;20030;-76
2022/04/23 11:04:18;;;;;;;7.35;4.70;;;16.50;99.90;;;;;;5013005;28;20097;-76
2022/04/23 11:12:33;;;;;;;12.77;6.00;;;15.90;99.90;;;;;;5007421;28;20080;-75
2022/04/23 11:15:00;;;;;;;5.78;5.18;;;16.00;99.90;;;;;;5012486;28;20057;-76
2022/04/23 11:17:32;;;;;;;8.00;5.70;;;16.10;99.90;;;;;;5009345;28;20033;-77
2022/04/23 11:19:59;;;;;;;4.40;4.10;;;16.20;99.90;;;;;;5012317;28;20068;-76
2022/04/23 11:22:26;;;;;;;7.40;5.07;;;16.20;99.90;;;;;;5014717;28;20022;-76
2022/04/23 11:24:55;;;;;;;7.72;6.40;;;16.20;99.90;;;;;;5010105;28;20109;-76
2022/04/23 11:27:29;;;;;;;10.02;6.15;;;16.20;99.90;;;;;;5016423;28;20041;-76
2022/04/23 11:29:55;;;;;;;7.65;5.43;;;16.30;99.90;;;;;;5012457;28;20022;-77
2022/04/23 11:32:28;;;;;;;9.68;5.35;;;16.20;99.90;;;;;;5011549;28;20195;-77
2022/04/23 11:35:01;;;;;;;6.88;5.05;;;16.30;99.90;;;;;;5010250;28;20048;-76
2022/04/23 11:37:32;;;;;;;6.03;5.47;;;16.40;99.90;;;;;;5013976;28;20022;-76
2022/04/23 11:40:11;;;;;;;8.50;7.80;;;16.70;99.90;;;;;;5015162;28;20029;-77
2022/04/23 11:42:41;;;;;;;9.27;6.60;;;16.80;99.90;;;;;;5016495;28;20036;-75
2022/04/23 11:45:09;;;;;;;7.25;6.38;;;16.90;99.90;;;;;;5008860;28;20057;-77
2022/04/23 11:47:35;;;;;;;12.15;6.38;;;17.10;99.90;;;;;;5008730;28;20033;-77
2022/04/23 11:50:16;;;;;;;9.88;6.93;;;17.20;99.90;;;;;;5011346;28;20386;-76
2022/04/23 11:52:43;;;;;;;10.40;6.38;;;17.00;99.90;;;;;;5011559;28;20117;-76
2022/04/23 11:55:33;;;;;;;7.55;5.63;;;17.00;99.90;;;;;;5010864;28;20053;-76
2022/04/23 11:58:00;;;;;;;7.57;5.45;;;16.90;99.90;;;;;;5013151;28;20366;-77
2022/04/23 12:00:27;;;;;;;5.35;4.88;;;16.70;99.90;;;;;;5011112;28;20026;-75
2022/04/23 12:02:54;;;;;;;8.40;5.90;;;16.70;99.90;;;;;;5009640;28;20141;-77
2022/04/23 12:05:30;;;;;;;5.10;4.57;;;16.80;99.90;;;;;;5013469;28;20435;-77
2022/04/23 12:07:59;;;;;;;8.02;5.57;;;16.60;99.90;;;;;;5010492;28;20040;-76
2022/04/23 12:10:31;;;;;;;6.03;5.43;;;16.50;99.90;;;;;;5009007;28;20029;-76
2022/04/23 12:13:06;;;;;;;10.50;5.35;;;16.40;99.90;;;;;;5008494;28;20102;-76
2022/04/23 12:15:33;;;;;;;7.18;4.43;;;16.20;99.90;;;;;;4997075;28;20119;-76
2022/04/23 12:17:59;;;;;;;4.90;4.50;;;16.00;99.90;;;;;;5007582;28;20093;-76
2022/04/23 12:20:26;;;;;;;7.20;4.20;;;15.70;99.90;;;;;;5011837;28;20018;-76
2022/04/23 12:22:54;;;;;;;5.75;4.50;;;15.60;99.90;;;;;;5011453;28;20145;-75
2022/04/23 12:25:21;;;;;;;5.53;4.55;;;15.60;99.90;;;;;;5009872;28;20036;-76
2022/04/23 12:42:06;;;;;;;14.63;7.60;;;15.30;99.90;;;;;;5007005;28;20117;-74
2022/04/23 12:44:42;;;;;;;9.45;6.70;;;15.20;99.90;;;;;;5006661;28;20057;-73
2022/04/23 12:47:09;;;;;;;9.95;4.90;;;15.10;99.90;;;;;;5011744;28;20030;-75
2022/04/23 12:49:50;;;;;;;7.10;6.00;;;15.00;99.90;;;;;;5009764;28;20076;-75
2022/04/23 12:52:21;;;;;;;6.10;5.00;;;15.00;99.90;;;;;;5011248;28;20038;-74
2022/04/23 12:55:16;;;;;;;7.15;4.57;;;15.10;99.90;;;;;;5010377;28;20034;-74
2022/04/23 12:57:44;;;;;;;6.22;5.38;;;14.90;99.90;;;;;;5006662;28;20030;-76
2022/04/23 13:00:12;;;;;;;9.70;7.65;;;14.70;99.90;;;;;;5011106;28;20541;-74
2022/04/23 13:02:40;;;;;;;13.88;5.38;;;14.60;99.90;;;;;;5008470;28;20359;-73
2022/04/23 13:05:08;;;;;;;8.55;7.50;;;14.50;99.90;;;;;;5011730;28;20034;-74
2022/04/23 13:10:18;;;;;;;8.35;7.40;;;14.40;99.90;;;;;;5011842;28;20449;-73
2022/04/23 13:12:44;;;;;;;9.30;7.07;;;14.60;99.90;;;;;;5009285;28;20038;-74
2022/04/23 13:15:11;;;;;;;7.03;6.32;;;14.90;99.90;;;;;;5008950;28;20030;-76
2022/04/23 13:17:38;;;;;;;7.10;6.50;;;15.50;99.90;;;;;;5007498;28;20108;-74
2022/04/23 13:20:08;;;;;;;9.95;8.98;;;15.90;99.90;;;;;;5009580;28;20105;-72
2022/04/23 13:22:34;;;;;;;9.68;7.07;;;16.20;99.90;;;;;;5005413;28;20180;-70
2022/04/23 13:25:02;;;;;;;8.52;7.65;;;16.40;99.90;;;;;;5004475;28;20121;-73
2022/04/23 13:27:29;;;;;;;8.50;5.47;;;16.50;99.90;;;;;;5007600;28;20030;-74
2022/04/23 13:29:55;;;;;;;5.07;4.10;;;16.50;99.90;;;;;;5007620;28;21145;-72
2022/04/23 13:32:21;;;;;;;7.68;6.78;;;16.30;99.90;;;;;;5006468;28;20041;-73
2022/04/23 13:34:47;;;;;;;7.07;5.85;;;16.10;99.90;;;;;;5008148;28;20026;-73